Terminal Aerodrome Forecast
Issued by NWS Omaha/Valley, NE

Home | Current Version | Previous Version | Text Only | Print | Product List | Glossary On
Versions: 1 2 3 4 5 6 7 8 9 10 11 12 13 14 15 16 17 18 19 20 21 22 23 24 25 26 27 28 29 30 31 32 33 34 35 36 37 38 39 40 41 42
000
FTUS43 KOAX 211124
TAFOFK
TAF
KOFK 211124Z 2112/2212 20007KT 4SM BR OVC009
      TEMPO 2112/2116 3/4SM BR OVC002
     FM211600 19010KT 5SM BR OVC015
      TEMPO 2116/2120 3SM BR OVC004
     FM212000 19015G22KT 5SM BR OVC015
      TEMPO 2120/2124 2SM BR OVC002
     FM220000 19015G23KT 5SM BR OVC005 PROB30 2200/2206 3SM -RA
      OVC004
     FM220600 22014G20KT 4SM -RA BR OVC005=

USA.gov is the U.S. government's official web portal to all federal, state and local government web resources and services.